createdAt,value
2022-08-30T00:00:09.906Z,24.33
2022-08-30T00:00:46.752Z,24.30
2022-08-30T00:01:27.619Z,24.28
2022-08-30T00:02:05.205Z,24.30
2022-08-30T00:02:42.907Z,24.29
2022-08-30T00:03:20.874Z,24.29
2022-08-30T00:03:58.069Z,24.28
2022-08-30T00:04:35.858Z,24.27
2022-08-30T00:05:13.926Z,24.28
2022-08-30T00:05:51.201Z,24.28
2022-08-30T00:06:28.548Z,24.28
2022-08-30T00:07:05.809Z,24.26
2022-08-30T00:07:43.421Z,24.27
2022-08-30T00:08:21.241Z,24.27
2022-08-30T00:08:59.071Z,24.28
2022-08-30T00:09:37.252Z,24.26
2022-08-30T00:10:15.922Z,24.27
2022-08-30T00:10:54.024Z,24.28
2022-08-30T00:11:34.095Z,24.27
2022-08-30T00:12:17.926Z,24.28
2022-08-30T00:13:04.265Z,24.29
2022-08-30T00:13:50.478Z,24.28
2022-08-30T00:14:34.718Z,24.28
2022-08-30T00:15:13.325Z,24.29
2022-08-30T00:15:50.802Z,24.28
2022-08-30T00:16:28.133Z,24.27
2022-08-30T00:17:05.155Z,24.29
2022-08-30T00:17:42.002Z,24.29
2022-08-30T00:18:19.139Z,24.28
2022-08-30T00:18:56.302Z,24.29
2022-08-30T00:19:33.189Z,24.27
2022-08-30T00:20:10.382Z,24.28
2022-08-30T00:20:48.535Z,24.27
2022-08-30T00:21:25.941Z,24.25
2022-08-30T00:22:03.372Z,24.23
2022-08-30T00:22:39.827Z,24.22
2022-08-30T00:23:17.052Z,24.22
2022-08-30T00:23:53.641Z,24.20
2022-08-30T00:24:30.859Z,24.20
2022-08-30T00:25:07.633Z,24.20
2022-08-30T00:25:45.333Z,24.22
2022-08-30T00:26:21.856Z,24.20
2022-08-30T00:26:59.802Z,24.21
2022-08-30T00:27:36.652Z,24.19
2022-08-30T00:28:14.263Z,24.22
2022-08-30T00:28:51.577Z,24.24
2022-08-30T00:29:29.149Z,24.24
2022-08-30T00:30:06.769Z,24.24
2022-08-30T00:30:43.924Z,24.23
2022-08-30T00:31:21.199Z,24.22
2022-08-30T00:32:00.178Z,24.24
2022-08-30T00:32:41.208Z,24.23
2022-08-30T00:33:22.960Z,24.21
2022-08-30T00:34:05.299Z,24.21
2022-08-30T00:34:48.220Z,24.23
2022-08-30T00:35:32.009Z,24.24
2022-08-30T00:36:14.109Z,24.24
2022-08-30T00:36:55.760Z,24.23
2022-08-30T00:37:38.586Z,24.22
2022-08-30T00:38:21.347Z,24.23
2022-08-30T00:39:06.097Z,24.23
2022-08-30T00:39:48.633Z,24.24
2022-08-30T00:40:35.608Z,24.24
2022-08-30T00:41:13.722Z,24.24
2022-08-30T00:41:51.165Z,24.22
2022-08-30T00:42:28.041Z,24.21
2022-08-30T00:43:06.755Z,24.22
2022-08-30T00:43:45.412Z,24.21
2022-08-30T00:44:22.361Z,24.21
2022-08-30T00:45:08.616Z,24.22
2022-08-30T00:45:47.031Z,24.19
2022-08-30T00:46:24.891Z,24.19
2022-08-30T00:47:02.233Z,24.20
2022-08-30T00:47:39.603Z,24.21
2022-08-30T00:48:17.093Z,24.20
2022-08-30T00:48:54.653Z,24.19
2022-08-30T00:49:32.158Z,24.20
2022-08-30T00:50:10.911Z,24.20
2022-08-30T00:50:50.239Z,24.21
2022-08-30T00:51:27.916Z,24.23
2022-08-30T00:52:09.186Z,24.21
2022-08-30T00:53:00.265Z,24.20
2022-08-30T00:53:45.111Z,24.22
2022-08-30T00:54:26.250Z,24.20
2022-08-30T00:55:03.087Z,24.20
2022-08-30T00:55:41.997Z,24.23
2022-08-30T00:56:20.567Z,24.21
2022-08-30T00:56:58.714Z,24.22
2022-08-30T00:57:35.508Z,24.23
2022-08-30T00:58:13.574Z,24.21
2022-08-30T00:58:51.581Z,24.19
2022-08-30T00:59:29.088Z,24.18
2022-08-30T01:00:06.097Z,24.21
2022-08-30T01:00:43.994Z,24.20
2022-08-30T01:01:21.976Z,24.21
2022-08-30T01:02:00.459Z,24.19
2022-08-30T01:02:37.387Z,24.21
2022-08-30T01:03:15.123Z,24.20
2022-08-30T01:03:52.311Z,24.21
2022-08-30T01:04:29.886Z,24.20
2022-08-30T01:05:06.715Z,24.19
2022-08-30T01:05:44.390Z,24.19
2022-08-30T01:06:23.048Z,24.19
2022-08-30T01:07:00.769Z,24.17
2022-08-30T01:07:38.032Z,24.18
2022-08-30T01:08:16.668Z,24.19
2022-08-30T01:08:57.035Z,24.18
2022-08-30T01:09:38.377Z,24.15
2022-08-30T01:10:19.749Z,24.12
2022-08-30T01:11:02.751Z,24.13
2022-08-30T01:11:46.083Z,24.15
2022-08-30T01:12:30.087Z,24.14
2022-08-30T01:13:16.717Z,24.14
2022-08-30T01:13:55.489Z,24.17
2022-08-30T01:14:33.779Z,24.17
2022-08-30T01:15:11.292Z,24.16
2022-08-30T01:15:48.637Z,24.18
2022-08-30T01:16:27.363Z,24.19
2022-08-30T01:17:04.695Z,24.20
2022-08-30T01:17:41.166Z,24.21
2022-08-30T01:18:18.604Z,24.20
2022-08-30T01:18:57.061Z,24.18
2022-08-30T01:20:21.187Z,24.19
2022-08-30T01:21:27.600Z,24.16
2022-08-30T01:22:13.776Z,24.17
2022-08-30T01:22:54.337Z,24.18
2022-08-30T01:23:42.339Z,24.17
2022-08-30T01:24:38.561Z,24.18
2022-08-30T01:25:35.002Z,24.18
2022-08-30T01:26:36.669Z,24.16
2022-08-30T01:31:53.025Z,24.12
2022-08-30T01:32:40.702Z,24.12
2022-08-30T01:33:27.108Z,24.11
2022-08-30T01:34:12.779Z,24.10
2022-08-30T01:34:59.722Z,24.09
2022-08-30T01:35:55.762Z,24.09
2022-08-30T01:36:48.264Z,24.12
2022-08-30T01:37:35.876Z,24.11
2022-08-30T01:38:24.252Z,24.13
2022-08-30T01:39:20.859Z,24.13
2022-08-30T01:40:14.650Z,24.14
2022-08-30T01:41:11.153Z,24.12
2022-08-30T01:42:09.390Z,24.15
2022-08-30T01:44:15.757Z,24.13
2022-08-30T01:46:10.615Z,24.17
2022-08-30T01:46:56.190Z,24.16
2022-08-30T01:47:39.908Z,24.13
2022-08-30T01:48:28.267Z,24.15
2022-08-30T01:49:17.328Z,24.13
2022-08-30T01:50:01.221Z,24.13
2022-08-30T01:50:49.478Z,24.16
2022-08-30T01:51:35.022Z,24.16
2022-08-30T01:52:20.390Z,24.15
2022-08-30T01:53:06.740Z,24.17
2022-08-30T01:53:56.195Z,24.16
2022-08-30T01:54:51.087Z,24.17
2022-08-30T01:55:48.704Z,24.17
2022-08-30T01:57:47.782Z,24.14
2022-08-30T01:58:43.503Z,24.14
2022-08-30T01:59:37.778Z,24.11
2022-08-30T02:00:32.150Z,24.10
2022-08-30T02:01:34.593Z,24.10
2022-08-30T02:03:51.765Z,24.11
2022-08-30T02:04:42.282Z,24.10
2022-08-30T02:05:28.179Z,24.11
2022-08-30T02:06:11.644Z,24.13
2022-08-30T02:06:57.611Z,24.11
2022-08-30T02:07:43.236Z,24.13
2022-08-30T02:08:29.921Z,24.12
2022-08-30T02:09:19.566Z,24.11
2022-08-30T02:10:08.765Z,24.11
2022-08-30T02:11:05.877Z,24.11
2022-08-30T02:13:21.021Z,24.12
2022-08-30T02:14:07.896Z,24.11
2022-08-30T02:14:52.161Z,24.13
2022-08-30T02:15:41.345Z,24.12
2022-08-30T02:16:29.992Z,24.11
2022-08-30T02:17:13.909Z,24.12
2022-08-30T02:18:02.411Z,24.12
2022-08-30T02:18:58.862Z,24.14
2022-08-30T02:19:55.209Z,24.16
2022-08-30T02:20:52.118Z,24.15
2022-08-30T02:24:01.577Z,24.13
2022-08-30T02:24:47.208Z,24.09
2022-08-30T02:25:33.407Z,24.05
2022-08-30T02:26:21.520Z,24.10
2022-08-30T02:27:07.687Z,24.11
2022-08-30T02:27:55.119Z,24.10
2022-08-30T02:28:49.605Z,24.09
2022-08-30T02:29:39.687Z,24.10
2022-08-30T02:30:36.041Z,24.09
2022-08-30T02:33:41.139Z,24.07
2022-08-30T02:34:42.912Z,24.07
2022-08-30T02:35:41.721Z,24.07
2022-08-30T02:37:50.624Z,24.05
2022-08-30T02:38:40.861Z,24.04
2022-08-30T02:39:26.261Z,24.05
2022-08-30T02:40:12.493Z,24.06
2022-08-30T02:40:58.658Z,24.07
2022-08-30T02:41:48.386Z,24.09
2022-08-30T02:42:34.032Z,24.09
2022-08-30T02:43:19.878Z,24.09
2022-08-30T02:44:06.640Z,24.09
2022-08-30T02:44:57.063Z,24.08
2022-08-30T02:45:54.609Z,24.09
2022-08-30T02:47:02.637Z,24.12
2022-08-30T02:50:09.319Z,24.09
2022-08-30T02:50:54.730Z,24.09
2022-08-30T02:51:40.328Z,24.10
2022-08-30T02:52:33.468Z,24.10
2022-08-30T02:53:23.296Z,24.08
2022-08-30T02:54:19.172Z,24.09
2022-08-30T02:55:12.964Z,24.07
2022-08-30T02:56:02.920Z,24.08
2022-08-30T02:56:56.829Z,24.10
2022-08-30T02:57:59.225Z,24.09
2022-08-30T02:59:15.097Z,24.10
2022-08-30T03:00:06.386Z,24.10
2022-08-30T03:01:01.898Z,24.08
2022-08-30T03:01:50.487Z,24.07
2022-08-30T03:02:38.609Z,24.06
2022-08-30T03:03:23.795Z,24.06
2022-08-30T03:04:09.408Z,24.05
2022-08-30T03:04:54.835Z,24.06
2022-08-30T03:05:40.234Z,24.07
2022-08-30T03:06:27.828Z,24.07
2022-08-30T03:07:17.214Z,24.07
2022-08-30T03:08:15.866Z,24.08
2022-08-30T03:15:56.157Z,24.03
2022-08-30T03:16:48.773Z,24.04
2022-08-30T03:17:39.143Z,24.05
2022-08-30T03:20:54.417Z,24.01
2022-08-30T03:21:38.164Z,24.05
2022-08-30T03:22:22.426Z,24.05
2022-08-30T03:23:09.243Z,24.05
2022-08-30T03:24:00.133Z,24.07
2022-08-30T03:24:47.578Z,24.06
2022-08-30T03:25:36.679Z,24.03
2022-08-30T03:28:53.305Z,24.03
2022-08-30T03:29:38.876Z,24.04
2022-08-30T03:30:23.342Z,24.05
2022-08-30T03:31:07.215Z,24.05
2022-08-30T03:31:52.595Z,24.02
2022-08-30T03:32:36.546Z,24.04
2022-08-30T03:33:23.725Z,24.04
2022-08-30T03:34:15.436Z,24.05
2022-08-30T03:35:06.578Z,24.01
2022-08-30T03:35:54.392Z,24.05
2022-08-30T03:36:51.871Z,24.05
2022-08-30T03:38:51.481Z,24.06
2022-08-30T03:42:51.941Z,24.07
2022-08-30T03:43:48.113Z,24.04
2022-08-30T03:44:45.712Z,24.03
2022-08-30T03:47:57.678Z,24.03
2022-08-30T03:48:47.916Z,24.04
2022-08-30T03:49:41.236Z,24.03
2022-08-30T03:50:34.933Z,24.02
2022-08-30T03:52:26.602Z,24.04
2022-08-30T03:53:13.586Z,24.04
2022-08-30T03:54:02.587Z,24.04
2022-08-30T03:57:06.406Z,24.04
2022-08-30T03:57:52.809Z,24.04
2022-08-30T03:58:39.310Z,24.05
2022-08-30T03:59:27.287Z,24.02
2022-08-30T04:00:13.658Z,24.01
2022-08-30T04:00:59.508Z,23.99
2022-08-30T04:01:45.251Z,24.00
2022-08-30T04:02:32.995Z,23.99
2022-08-30T04:04:55.363Z,24.00
2022-08-30T04:05:47.813Z,24.02
2022-08-30T04:06:36.843Z,24.03
2022-08-30T04:07:35.283Z,24.04
2022-08-30T04:08:29.639Z,24.03
2022-08-30T04:09:17.381Z,24.01
2022-08-30T04:10:07.298Z,24.03
2022-08-30T04:11:02.937Z,24.04
2022-08-30T04:14:43.894Z,24.01
2022-08-30T04:15:15.238Z,24.03
2022-08-30T04:15:46.702Z,24.02
2022-08-30T04:16:18.879Z,24.00
2022-08-30T04:16:50.327Z,24.00
2022-08-30T04:17:21.833Z,24.03
2022-08-30T04:17:53.554Z,23.98
2022-08-30T04:18:24.975Z,23.99
2022-08-30T04:18:56.372Z,24.03
2022-08-30T04:19:27.727Z,24.03
2022-08-30T04:19:59.288Z,24.02
2022-08-30T04:20:31.268Z,23.99
2022-08-30T04:21:03.023Z,24.00
2022-08-30T04:21:37.531Z,23.94
2022-08-30T04:22:14.646Z,23.93
2022-08-30T04:22:46.081Z,23.96
2022-08-30T04:23:17.539Z,23.99
2022-08-30T04:23:49.126Z,23.99
2022-08-30T04:24:20.516Z,23.98
2022-08-30T04:24:51.991Z,23.98
2022-08-30T04:25:23.443Z,23.98
2022-08-30T04:25:55.037Z,24.00
2022-08-30T04:26:27.645Z,23.93
2022-08-30T04:27:00.908Z,23.98
2022-08-30T04:27:32.380Z,24.01
2022-08-30T04:28:03.889Z,24.03
2022-08-30T04:28:35.287Z,24.02
2022-08-30T04:29:07.004Z,24.02
2022-08-30T04:29:38.440Z,24.01
2022-08-30T04:30:10.081Z,24.01
2022-08-30T04:30:41.859Z,24.01
2022-08-30T04:31:14.156Z,24.03
2022-08-30T04:31:46.906Z,24.01
2022-08-30T04:32:18.363Z,23.99
2022-08-30T04:32:49.973Z,24.01
2022-08-30T04:33:21.396Z,24.01
2022-08-30T04:33:52.948Z,23.99
2022-08-30T04:34:24.489Z,23.97
2022-08-30T04:34:58.322Z,23.93
2022-08-30T04:35:29.745Z,23.93
2022-08-30T04:36:01.939Z,23.96
2022-08-30T04:36:33.402Z,23.95
2022-08-30T04:37:04.828Z,23.96
2022-08-30T04:37:37.299Z,23.98
2022-08-30T04:38:08.720Z,24.00
2022-08-30T04:38:40.342Z,24.00
2022-08-30T04:39:11.761Z,24.01
2022-08-30T04:39:43.108Z,24.01
2022-08-30T04:40:14.578Z,24.01
2022-08-30T04:40:46.384Z,24.01
2022-08-30T04:41:18.341Z,24.02
2022-08-30T04:41:49.726Z,23.99
2022-08-30T04:42:21.132Z,23.97
2022-08-30T04:42:52.605Z,24.00
2022-08-30T04:43:24.441Z,23.97
2022-08-30T04:43:55.885Z,23.96
2022-08-30T04:44:27.412Z,23.98
2022-08-30T04:45:01.846Z,23.97
2022-08-30T04:45:33.391Z,23.90
2022-08-30T04:46:05.596Z,23.96
2022-08-30T04:46:37.027Z,23.98
2022-08-30T04:47:16.082Z,23.97
2022-08-30T04:47:47.501Z,23.98
2022-08-30T04:48:19.041Z,23.97
2022-08-30T04:48:50.437Z,23.98
2022-08-30T04:49:21.849Z,23.94
2022-08-30T04:49:53.409Z,23.97
2022-08-30T04:50:24.789Z,23.94
2022-08-30T04:50:56.168Z,23.96
2022-08-30T04:51:27.660Z,24.00
2022-08-30T04:51:59.078Z,23.99
2022-08-30T04:52:30.629Z,23.99
2022-08-30T04:53:02.199Z,23.99
2022-08-30T04:53:33.995Z,23.99
2022-08-30T04:54:05.622Z,23.94
2022-08-30T04:54:37.066Z,24.00
2022-08-30T04:55:08.717Z,24.00
2022-08-30T04:55:40.427Z,23.98
2022-08-30T04:56:13.443Z,24.00
2022-08-30T04:56:44.953Z,24.00
2022-08-30T04:57:16.309Z,23.99
2022-08-30T04:57:47.802Z,23.96
2022-08-30T04:58:19.228Z,23.94
2022-08-30T04:58:51.511Z,23.92
2022-08-30T04:59:23.147Z,23.91
2022-08-30T04:59:54.615Z,23.91
2022-08-30T05:00:26.003Z,23.96
2022-08-30T05:00:57.496Z,23.96
2022-08-30T05:01:29.601Z,23.94
2022-08-30T05:02:01.112Z,23.99
2022-08-30T05:02:32.631Z,23.98
2022-08-30T05:03:04.214Z,23.97
2022-08-30T05:03:35.610Z,23.99
2022-08-30T05:04:07.024Z,23.98
2022-08-30T05:04:38.468Z,23.99
2022-08-30T05:05:10.279Z,23.99
2022-08-30T05:05:49.008Z,24.00
2022-08-30T05:06:20.633Z,23.98
2022-08-30T05:06:52.072Z,23.97
2022-08-30T05:07:23.432Z,23.98
2022-08-30T05:07:55.510Z,23.96
2022-08-30T05:08:26.920Z,23.97
2022-08-30T05:08:58.331Z,23.97
2022-08-30T05:09:29.727Z,23.99
2022-08-30T05:10:01.124Z,23.96
2022-08-30T05:10:32.539Z,23.93
2022-08-30T05:11:04.447Z,23.91
2022-08-30T05:11:35.874Z,23.95
2022-08-30T05:12:07.374Z,23.97
2022-08-30T05:12:39.134Z,23.98
2022-08-30T05:13:10.860Z,23.98
2022-08-30T05:13:42.765Z,23.97
2022-08-30T05:14:14.195Z,23.97
2022-08-30T05:14:45.673Z,23.94
2022-08-30T05:15:17.169Z,23.97
2022-08-30T05:15:48.632Z,23.92
2022-08-30T05:16:20.247Z,23.95
2022-08-30T05:16:51.674Z,23.95
2022-08-30T05:17:23.214Z,23.95
2022-08-30T05:17:54.622Z,23.94
2022-08-30T05:18:26.195Z,23.92
2022-08-30T05:18:57.565Z,23.93
2022-08-30T05:19:31.236Z,23.94
2022-08-30T05:20:02.709Z,23.90
2022-08-30T05:20:34.328Z,23.92
2022-08-30T05:21:09.683Z,23.94
2022-08-30T05:21:41.229Z,23.93
2022-08-30T05:22:12.815Z,23.93
2022-08-30T05:22:44.341Z,23.91
2022-08-30T05:23:15.946Z,23.93
2022-08-30T05:23:47.526Z,23.92
2022-08-30T05:24:19.163Z,23.92
2022-08-30T05:24:50.530Z,23.94
2022-08-30T05:25:23.095Z,23.94
2022-08-30T05:25:54.533Z,23.93
2022-08-30T05:26:26.840Z,23.91
2022-08-30T05:26:58.619Z,23.94
2022-08-30T05:27:30.006Z,23.94
2022-08-30T05:28:01.443Z,23.92
2022-08-30T05:28:33.082Z,23.94
2022-08-30T05:29:04.545Z,23.93
2022-08-30T05:29:35.913Z,23.89
2022-08-30T05:30:07.647Z,23.90
2022-08-30T05:30:39.020Z,23.92
2022-08-30T05:31:17.464Z,23.90
2022-08-30T05:31:48.946Z,23.91
2022-08-30T05:32:20.438Z,23.90
2022-08-30T05:32:52.469Z,23.93
2022-08-30T05:33:24.060Z,23.90
2022-08-30T05:33:55.567Z,23.91
2022-08-30T05:34:28.472Z,23.93
2022-08-30T05:34:59.919Z,23.94
2022-08-30T05:35:31.404Z,23.94
2022-08-30T05:36:05.617Z,23.95
2022-08-30T05:36:37.098Z,23.95
2022-08-30T05:37:08.482Z,23.96
2022-08-30T05:37:39.837Z,23.94
2022-08-30T05:38:11.203Z,23.91
2022-08-30T05:38:43.079Z,23.92
2022-08-30T05:39:15.525Z,23.92
2022-08-30T05:39:52.417Z,23.92
2022-08-30T05:40:26.923Z,23.91
2022-08-30T05:41:01.729Z,23.90
2022-08-30T05:41:36.975Z,23.92
2022-08-30T05:42:08.444Z,23.92
2022-08-30T05:42:39.874Z,23.90
2022-08-30T05:43:11.237Z,23.92
2022-08-30T05:43:42.609Z,23.90
2022-08-30T05:44:13.980Z,23.90
2022-08-30T05:44:45.568Z,23.87
2022-08-30T05:45:17.229Z,23.92
2022-08-30T05:45:48.649Z,23.93
2022-08-30T05:46:20.191Z,23.92
2022-08-30T05:46:51.817Z,23.94
2022-08-30T05:47:23.336Z,23.95
2022-08-30T05:47:54.713Z,23.91
2022-08-30T05:48:26.302Z,23.88
2022-08-30T05:48:57.749Z,23.87
2022-08-30T05:49:29.179Z,23.89
2022-08-30T05:50:00.637Z,23.90
2022-08-30T05:50:33.386Z,23.91
2022-08-30T05:51:06.537Z,23.92
2022-08-30T05:51:43.269Z,23.92
2022-08-30T05:52:15.158Z,23.87
2022-08-30T05:52:46.818Z,23.91
2022-08-30T05:53:18.213Z,23.90
2022-08-30T05:53:49.744Z,23.89
2022-08-30T05:54:21.407Z,23.90
2022-08-30T05:54:53.474Z,23.92
2022-08-30T05:55:24.966Z,23.93
2022-08-30T05:55:56.336Z,23.94
2022-08-30T05:56:28.612Z,23.93
2022-08-30T05:57:00.018Z,23.93
2022-08-30T05:57:32.261Z,23.92
2022-08-30T05:58:03.654Z,23.92
2022-08-30T05:58:35.034Z,23.89
2022-08-30T05:59:06.695Z,23.91
2022-08-30T05:59:38.313Z,23.92
2022-08-30T06:00:11.451Z,23.93
2022-08-30T06:00:43.041Z,23.93
2022-08-30T06:01:23.214Z,23.93
2022-08-30T06:01:56.219Z,23.92
2022-08-30T06:02:27.650Z,23.92
2022-08-30T06:02:59.115Z,23.90
2022-08-30T06:03:30.523Z,23.92
2022-08-30T06:04:04.196Z,23.91
2022-08-30T06:04:35.777Z,23.90
2022-08-30T06:05:07.379Z,23.91
2022-08-30T06:05:39.139Z,23.91
2022-08-30T06:06:10.617Z,23.90
2022-08-30T06:06:42.453Z,23.89
2022-08-30T06:07:15.830Z,23.88
2022-08-30T06:07:48.617Z,23.87
2022-08-30T06:08:20.161Z,23.89
2022-08-30T06:08:51.543Z,23.89
2022-08-30T06:09:23.131Z,23.90
2022-08-30T06:09:54.522Z,23.91
2022-08-30T06:10:25.893Z,23.89
2022-08-30T06:10:57.275Z,23.90
2022-08-30T06:11:28.736Z,23.91
2022-08-30T06:12:00.110Z,23.86
2022-08-30T06:12:31.496Z,23.87
2022-08-30T06:13:02.868Z,23.87
2022-08-30T06:13:34.326Z,23.88
2022-08-30T06:14:05.738Z,23.90
2022-08-30T06:14:37.338Z,23.92
2022-08-30T06:15:09.162Z,23.90
2022-08-30T06:15:40.694Z,23.92
2022-08-30T06:16:12.687Z,23.90
2022-08-30T06:16:44.233Z,23.91
2022-08-30T06:17:15.605Z,23.91
2022-08-30T06:17:47.519Z,23.91
2022-08-30T06:18:18.939Z,23.91
2022-08-30T06:19:00.278Z,23.91
2022-08-30T06:19:31.771Z,23.89
2022-08-30T06:20:03.507Z,23.91
2022-08-30T06:20:38.998Z,23.90
2022-08-30T06:21:24.048Z,23.88
2022-08-30T06:21:55.493Z,23.90
2022-08-30T06:22:26.881Z,23.90
2022-08-30T06:22:58.342Z,23.90
2022-08-30T06:23:29.749Z,23.89
2022-08-30T06:24:01.239Z,23.90
2022-08-30T06:24:55.939Z,23.89
2022-08-30T06:25:26.980Z,23.88
2022-08-30T06:26:12.847Z,23.88
2022-08-30T06:26:44.655Z,23.88
2022-08-30T06:27:16.120Z,23.85
2022-08-30T06:27:47.691Z,23.89
2022-08-30T06:28:19.302Z,23.91
2022-08-30T06:28:50.823Z,23.90
2022-08-30T06:29:22.292Z,23.90
2022-08-30T06:29:53.793Z,23.89
2022-08-30T06:30:25.188Z,23.90
2022-08-30T06:30:56.621Z,23.91
2022-08-30T06:31:28.072Z,23.91
2022-08-30T06:31:59.506Z,23.91
2022-08-30T06:32:30.879Z,23.91
2022-08-30T06:33:02.309Z,23.92
2022-08-30T06:33:33.934Z,23.90
2022-08-30T06:34:05.329Z,23.91
2022-08-30T06:34:36.882Z,23.90
2022-08-30T06:35:08.392Z,23.88
2022-08-30T06:35:56.665Z,23.87
2022-08-30T06:36:30.192Z,23.88
2022-08-30T06:37:01.578Z,23.86
2022-08-30T06:37:33.399Z,23.87
2022-08-30T06:38:04.864Z,23.85
2022-08-30T06:38:36.379Z,23.83
2022-08-30T06:39:07.800Z,23.83
2022-08-30T06:39:39.247Z,23.83
2022-08-30T06:40:10.954Z,23.85
2022-08-30T06:40:42.483Z,23.84
2022-08-30T06:41:14.790Z,23.84
2022-08-30T06:41:46.355Z,23.84
2022-08-30T06:42:17.982Z,23.81
2022-08-30T06:42:49.452Z,23.84
2022-08-30T06:43:20.845Z,23.83
2022-08-30T06:43:52.268Z,23.84
2022-08-30T06:44:26.040Z,23.85
2022-08-30T06:44:59.761Z,23.85
2022-08-30T06:45:31.110Z,23.85
2022-08-30T06:46:03.996Z,23.86
2022-08-30T06:46:35.988Z,23.86
2022-08-30T06:47:07.431Z,23.87
2022-08-30T06:47:39.300Z,23.86
2022-08-30T06:48:10.675Z,23.86
2022-08-30T06:48:43.108Z,23.85
2022-08-30T06:49:16.582Z,23.85
2022-08-30T06:49:47.993Z,23.84
2022-08-30T06:50:19.406Z,23.83
2022-08-30T06:50:53.968Z,23.84
2022-08-30T06:51:26.657Z,23.83
2022-08-30T06:51:58.059Z,23.83
2022-08-30T06:52:29.748Z,23.82
2022-08-30T06:53:02.757Z,23.83
2022-08-30T06:53:34.475Z,23.82
2022-08-30T06:54:06.132Z,23.82
2022-08-30T06:54:42.241Z,23.82
2022-08-30T06:55:14.417Z,23.83
2022-08-30T06:55:45.832Z,23.83
2022-08-30T06:56:17.322Z,23.82
2022-08-30T06:56:58.165Z,23.81
2022-08-30T06:57:30.209Z,23.80
2022-08-30T06:58:01.857Z,23.79
2022-08-30T06:58:33.379Z,23.79
2022-08-30T06:59:05.028Z,23.78
2022-08-30T06:59:36.371Z,23.78
2022-08-30T07:00:08.800Z,23.79
2022-08-30T07:00:40.292Z,23.79
2022-08-30T07:01:12.794Z,23.81
2022-08-30T07:01:44.260Z,23.82
2022-08-30T07:02:16.250Z,23.81
2022-08-30T07:02:47.817Z,23.80
2022-08-30T07:03:19.381Z,23.81
2022-08-30T07:03:50.946Z,23.80
2022-08-30T07:04:22.764Z,23.79
2022-08-30T07:04:54.235Z,23.80
2022-08-30T07:05:25.690Z,23.82
2022-08-30T07:05:57.125Z,23.81
2022-08-30T07:06:28.658Z,23.82
2022-08-30T07:07:00.034Z,23.82
2022-08-30T07:07:31.452Z,23.83
2022-08-30T07:08:02.992Z,23.85
2022-08-30T07:08:34.373Z,23.83
2022-08-30T07:09:05.825Z,23.81
2022-08-30T07:09:37.161Z,23.82
2022-08-30T07:10:08.729Z,23.83
2022-08-30T07:10:40.496Z,23.84
2022-08-30T07:11:11.948Z,23.88
2022-08-30T07:11:43.411Z,23.84
2022-08-30T07:12:14.940Z,23.83
2022-08-30T07:12:46.335Z,23.82
2022-08-30T07:13:17.969Z,23.84
2022-08-30T07:13:49.437Z,23.84
2022-08-30T07:14:21.190Z,23.81
2022-08-30T07:14:52.585Z,23.81
2022-08-30T07:15:24.222Z,23.83
2022-08-30T07:15:55.714Z,23.82
2022-08-30T07:16:27.293Z,23.83
2022-08-30T07:16:59.000Z,23.82
2022-08-30T07:17:34.512Z,23.81
2022-08-30T07:18:06.389Z,23.82
2022-08-30T07:18:37.815Z,23.80
2022-08-30T07:19:09.324Z,23.81
2022-08-30T07:19:51.803Z,23.82
2022-08-30T07:20:23.390Z,23.80
2022-08-30T07:20:54.907Z,23.82
2022-08-30T07:21:29.940Z,23.81
2022-08-30T07:22:01.363Z,23.81
2022-08-30T07:22:33.315Z,23.81
2022-08-30T07:23:04.753Z,23.80
2022-08-30T07:23:36.176Z,23.77
2022-08-30T07:24:08.932Z,23.72
2022-08-30T07:26:06.693Z,23.81
2022-08-30T07:26:58.695Z,23.81
2022-08-30T07:27:52.053Z,23.82
2022-08-30T07:36:05.246Z,23.80
2022-08-30T07:36:55.584Z,23.79
2022-08-30T07:37:48.597Z,23.75
2022-08-30T07:38:43.419Z,23.76
2022-08-30T07:39:41.669Z,23.77
2022-08-30T07:43:43.695Z,23.85
2022-08-30T07:44:23.139Z,23.83
2022-08-30T07:45:01.385Z,23.84
2022-08-30T07:45:38.145Z,23.82
2022-08-30T07:46:14.735Z,23.84
2022-08-30T07:46:51.304Z,23.82
2022-08-30T07:47:28.146Z,23.84
2022-08-30T07:48:05.186Z,23.84
2022-08-30T07:48:41.982Z,23.83
2022-08-30T07:49:21.356Z,23.84
2022-08-30T07:50:00.156Z,23.83
2022-08-30T07:50:40.348Z,23.86
2022-08-30T07:51:30.356Z,23.89
2022-08-30T07:52:13.916Z,23.91
2022-08-30T07:52:51.945Z,23.92
2022-08-30T07:53:28.293Z,23.92
2022-08-30T07:54:05.231Z,23.92
2022-08-30T07:54:42.467Z,23.96
2022-08-30T07:55:19.186Z,23.96
2022-08-30T07:55:56.896Z,23.93
2022-08-30T07:56:34.479Z,23.94
2022-08-30T07:57:12.061Z,23.92
2022-08-30T07:57:52.759Z,23.90
2022-08-30T07:58:29.744Z,23.91
2022-08-30T07:59:06.540Z,23.93
2022-08-30T07:59:43.151Z,23.90
2022-08-30T08:00:19.991Z,23.88
2022-08-30T08:00:58.351Z,23.88
2022-08-30T08:01:35.134Z,23.89
2022-08-30T08:02:12.851Z,23.90
2022-08-30T08:02:51.257Z,23.89
2022-08-30T08:03:28.334Z,23.88
2022-08-30T08:04:05.332Z,23.88
2022-08-30T08:04:42.428Z,23.87
2022-08-30T08:05:22.053Z,23.89
2022-08-30T08:06:01.694Z,23.86
2022-08-30T08:06:41.828Z,23.87
2022-08-30T08:07:27.784Z,23.90
2022-08-30T08:08:15.151Z,23.94
2022-08-30T08:08:53.239Z,23.92
2022-08-30T08:09:31.473Z,23.91
2022-08-30T08:10:12.219Z,23.89
2022-08-30T08:10:49.913Z,23.89
2022-08-30T08:11:30.396Z,23.91
2022-08-30T08:12:09.088Z,23.92
2022-08-30T08:12:46.647Z,23.91
2022-08-30T08:13:24.459Z,23.92
2022-08-30T08:14:04.761Z,23.89
2022-08-30T08:14:41.917Z,23.89
2022-08-30T08:15:18.545Z,23.88
2022-08-30T08:15:56.925Z,23.91
2022-08-30T08:16:33.531Z,23.96
2022-08-30T08:17:11.448Z,23.98
2022-08-30T08:17:48.217Z,24.01
2022-08-30T08:18:26.366Z,23.99
2022-08-30T08:19:04.871Z,23.96
2022-08-30T08:19:41.667Z,23.96
2022-08-30T08:20:18.730Z,23.91
2022-08-30T08:20:56.946Z,23.91
2022-08-30T08:21:33.670Z,23.90
2022-08-30T08:22:21.027Z,23.89
2022-08-30T08:22:58.063Z,23.89
2022-08-30T08:23:35.589Z,23.85
2022-08-30T08:24:12.265Z,23.85
2022-08-30T08:24:49.374Z,23.84
2022-08-30T08:25:26.692Z,23.87
2022-08-30T08:26:03.799Z,23.89
2022-08-30T08:26:41.134Z,23.87
2022-08-30T08:27:21.739Z,23.88
2022-08-30T08:27:59.560Z,23.86
2022-08-30T08:28:37.445Z,23.85
2022-08-30T08:29:14.667Z,23.83
2022-08-30T08:29:51.273Z,23.85
2022-08-30T08:30:28.068Z,23.84
2022-08-30T08:31:04.535Z,23.82
2022-08-30T08:31:41.254Z,23.82
2022-08-30T08:32:17.894Z,23.85
2022-08-30T08:32:54.875Z,23.82
2022-08-30T08:33:31.945Z,23.84
2022-08-30T08:34:10.130Z,23.85
2022-08-30T08:34:47.183Z,23.84
2022-08-30T08:35:24.144Z,23.84
2022-08-30T08:36:00.719Z,23.85
2022-08-30T08:36:38.115Z,23.84
2022-08-30T08:37:15.226Z,23.83
2022-08-30T08:37:51.604Z,23.82
2022-08-30T08:38:28.253Z,23.80
2022-08-30T08:39:06.129Z,23.81
2022-08-30T08:39:43.605Z,23.83
2022-08-30T08:40:20.880Z,23.83
2022-08-30T08:41:15.044Z,23.82
2022-08-30T08:42:10.207Z,23.80
2022-08-30T08:42:48.912Z,23.81
2022-08-30T08:43:26.345Z,23.81
2022-08-30T08:44:13.404Z,23.80
2022-08-30T08:45:11.742Z,23.81
2022-08-30T08:46:09.661Z,23.83
2022-08-30T08:47:19.627Z,23.81
2022-08-30T08:48:32.122Z,23.84
2022-08-30T08:49:39.985Z,23.85
2022-08-30T08:50:34.561Z,23.84
2022-08-30T08:51:29.526Z,23.84
2022-08-30T08:52:52.981Z,23.80
2022-08-30T08:53:47.867Z,23.81
2022-08-30T08:55:50.567Z,23.81
2022-08-30T08:56:51.822Z,23.81
2022-08-30T08:57:40.737Z,23.81
2022-08-30T08:58:30.914Z,23.81
2022-08-30T08:59:20.751Z,23.81
2022-08-30T09:00:06.974Z,23.80
2022-08-30T09:00:52.935Z,23.78
2022-08-30T09:01:38.703Z,23.80
2022-08-30T09:02:27.576Z,23.79
2022-08-30T09:03:18.376Z,23.80
2022-08-30T09:04:07.745Z,23.81
2022-08-30T09:05:05.726Z,23.80
2022-08-30T09:05:52.828Z,23.80
2022-08-30T09:06:54.550Z,23.80
2022-08-30T09:11:07.641Z,23.81
2022-08-30T09:13:22.874Z,23.80
2022-08-30T09:14:12.145Z,23.79
2022-08-30T09:15:09.038Z,23.80
2022-08-30T09:15:56.163Z,23.80
2022-08-30T09:21:47.106Z,23.77
2022-08-30T09:22:53.644Z,23.81
2022-08-30T09:24:11.795Z,23.75
2022-08-30T09:25:01.581Z,23.76
2022-08-30T09:25:50.503Z,23.76
2022-08-30T09:26:39.582Z,23.77
2022-08-30T09:27:22.216Z,23.80
2022-08-30T09:28:16.596Z,23.76
2022-08-30T09:29:03.168Z,23.81
2022-08-30T09:29:55.347Z,23.81
2022-08-30T09:30:47.900Z,23.80
2022-08-30T09:32:24.856Z,23.80